sensor_id;sensor_type;location;lat;lon;timestamp;temperature;humidity
652;DHT22;310;48.490;9.200;2023-05-07T00:02:02;19.10;44.90
652;DHT22;310;48.490;9.200;2023-05-07T00:04:29;19.00;46.20
652;DHT22;310;48.490;9.200;2023-05-07T00:07:01;19.10;44.90
652;DHT22;310;48.490;9.200;2023-05-07T00:09:26;19.00;44.10
652;DHT22;310;48.490;9.200;2023-05-07T00:11:52;19.00;44.50
652;DHT22;310;48.490;9.200;2023-05-07T00:14:18;18.90;44.00
652;DHT22;310;48.490;9.200;2023-05-07T00:16:44;19.00;43.40
652;DHT22;310;48.490;9.200;2023-05-07T00:19:09;18.90;44.50
652;DHT22;310;48.490;9.200;2023-05-07T00:21:35;18.80;44.70
652;DHT22;310;48.490;9.200;2023-05-07T00:24:01;18.80;44.50
652;DHT22;310;48.490;9.200;2023-05-07T00:26:26;18.80;43.90
652;DHT22;310;48.490;9.200;2023-05-07T00:28:52;18.80;44.70
652;DHT22;310;48.490;9.200;2023-05-07T00:31:18;18.80;44.90
652;DHT22;310;48.490;9.200;2023-05-07T00:33:43;18.50;43.30
652;DHT22;310;48.490;9.200;2023-05-07T00:36:09;18.60;46.80
652;DHT22;310;48.490;9.200;2023-05-07T00:38:34;18.70;45.80
652;DHT22;310;48.490;9.200;2023-05-07T00:41:00;18.70;43.50
652;DHT22;310;48.490;9.200;2023-05-07T00:43:27;18.60;44.40
652;DHT22;310;48.490;9.200;2023-05-07T00:45:53;18.70;44.20
652;DHT22;310;48.490;9.200;2023-05-07T00:48:19;18.80;43.90
652;DHT22;310;48.490;9.200;2023-05-07T00:50:45;18.70;44.50
652;DHT22;310;48.490;9.200;2023-05-07T00:53:12;18.70;44.60
652;DHT22;310;48.490;9.200;2023-05-07T00:55:39;18.70;45.40
652;DHT22;310;48.490;9.200;2023-05-07T00:58:05;18.70;44.20
652;DHT22;310;48.490;9.200;2023-05-07T01:00:31;18.70;44.50
652;DHT22;310;48.490;9.200;2023-05-07T01:02:57;18.60;44.80
652;DHT22;310;48.490;9.200;2023-05-07T01:05:23;18.60;44.80
652;DHT22;310;48.490;9.200;2023-05-07T01:07:51;18.60;45.20
652;DHT22;310;48.490;9.200;2023-05-07T01:10:18;18.80;42.90
652;DHT22;310;48.490;9.200;2023-05-07T01:12:44;18.70;44.90
652;DHT22;310;48.490;9.200;2023-05-07T01:15:11;18.70;45.10
652;DHT22;310;48.490;9.200;2023-05-07T01:17:39;18.50;45.50
652;DHT22;310;48.490;9.200;2023-05-07T01:20:06;18.50;44.10
652;DHT22;310;48.490;9.200;2023-05-07T01:22:34;18.40;44.60
652;DHT22;310;48.490;9.200;2023-05-07T01:25:02;18.50;44.60
652;DHT22;310;48.490;9.200;2023-05-07T01:27:28;18.40;45.30
652;DHT22;310;48.490;9.200;2023-05-07T01:29:54;18.40;45.40
652;DHT22;310;48.490;9.200;2023-05-07T01:32:33;18.40;45.30
652;DHT22;310;48.490;9.200;2023-05-07T01:35:02;18.30;44.70
652;DHT22;310;48.490;9.200;2023-05-07T01:37:28;18.30;46.10
652;DHT22;310;48.490;9.200;2023-05-07T01:39:54;18.30;45.70
652;DHT22;310;48.490;9.200;2023-05-07T01:42:20;18.10;45.90
652;DHT22;310;48.490;9.200;2023-05-07T01:44:46;18.10;45.00
652;DHT22;310;48.490;9.200;2023-05-07T01:47:13;18.20;46.10
652;DHT22;310;48.490;9.200;2023-05-07T01:49:41;18.20;45.30
652;DHT22;310;48.490;9.200;2023-05-07T01:52:07;17.90;44.90
652;DHT22;310;48.490;9.200;2023-05-07T01:54:33;17.70;45.00
652;DHT22;310;48.490;9.200;2023-05-07T01:56:59;17.80;45.60
652;DHT22;310;48.490;9.200;2023-05-07T01:59:25;17.80;45.80
652;DHT22;310;48.490;9.200;2023-05-07T02:01:51;17.90;45.40
652;DHT22;310;48.490;9.200;2023-05-07T02:04:17;17.80;45.40
652;DHT22;310;48.490;9.200;2023-05-07T02:06:43;17.90;45.10
652;DHT22;310;48.490;9.200;2023-05-07T02:09:08;17.80;44.80
652;DHT22;310;48.490;9.200;2023-05-07T02:11:34;17.90;46.00
652;DHT22;310;48.490;9.200;2023-05-07T02:14:00;17.70;44.90
652;DHT22;310;48.490;9.200;2023-05-07T02:16:25;17.70;45.70
652;DHT22;310;48.490;9.200;2023-05-07T02:18:51;17.70;46.70
652;DHT22;310;48.490;9.200;2023-05-07T02:21:17;17.60;46.60
652;DHT22;310;48.490;9.200;2023-05-07T02:23:42;17.60;46.20
652;DHT22;310;48.490;9.200;2023-05-07T02:26:08;17.60;45.70
652;DHT22;310;48.490;9.200;2023-05-07T02:28:33;17.40;46.10
652;DHT22;310;48.490;9.200;2023-05-07T02:31:05;17.30;46.20
652;DHT22;310;48.490;9.200;2023-05-07T02:33:31;17.50;46.60
652;DHT22;310;48.490;9.200;2023-05-07T02:35:57;17.50;46.60
652;DHT22;310;48.490;9.200;2023-05-07T02:38:23;17.50;46.30
652;DHT22;310;48.490;9.200;2023-05-07T02:40:48;17.60;46.00
652;DHT22;310;48.490;9.200;2023-05-07T02:43:14;17.50;47.50
652;DHT22;310;48.490;9.200;2023-05-07T02:45:39;17.60;46.00
652;DHT22;310;48.490;9.200;2023-05-07T02:48:05;17.50;46.80
652;DHT22;310;48.490;9.200;2023-05-07T02:50:31;17.40;46.50
652;DHT22;310;48.490;9.200;2023-05-07T02:52:58;17.40;46.90
652;DHT22;310;48.490;9.200;2023-05-07T02:55:23;17.50;46.20
652;DHT22;310;48.490;9.200;2023-05-07T02:57:49;17.40;45.70
652;DHT22;310;48.490;9.200;2023-05-07T03:00:17;17.40;46.00
652;DHT22;310;48.490;9.200;2023-05-07T03:02:43;17.40;46.90
652;DHT22;310;48.490;9.200;2023-05-07T03:05:09;17.40;46.60
652;DHT22;310;48.490;9.200;2023-05-07T03:07:36;17.30;45.40
652;DHT22;310;48.490;9.200;2023-05-07T03:10:02;17.40;45.00
652;DHT22;310;48.490;9.200;2023-05-07T03:12:27;17.40;46.00
652;DHT22;310;48.490;9.200;2023-05-07T03:14:53;17.30;46.40
652;DHT22;310;48.490;9.200;2023-05-07T03:17:19;17.20;46.80
652;DHT22;310;48.490;9.200;2023-05-07T03:19:45;17.10;47.20
652;DHT22;310;48.490;9.200;2023-05-07T03:22:11;17.00;47.10
652;DHT22;310;48.490;9.200;2023-05-07T03:24:36;16.90;47.70
652;DHT22;310;48.490;9.200;2023-05-07T03:27:02;16.90;47.90
652;DHT22;310;48.490;9.200;2023-05-07T03:29:27;16.90;47.10
652;DHT22;310;48.490;9.200;2023-05-07T03:31:53;16.90;47.00
652;DHT22;310;48.490;9.200;2023-05-07T03:34:18;16.80;48.00
652;DHT22;310;48.490;9.200;2023-05-07T03:36:48;16.80;47.70
652;DHT22;310;48.490;9.200;2023-05-07T03:39:14;16.90;47.30
652;DHT22;310;48.490;9.200;2023-05-07T03:41:39;16.90;47.00
652;DHT22;310;48.490;9.200;2023-05-07T03:44:05;16.80;47.40
652;DHT22;310;48.490;9.200;2023-05-07T03:46:31;16.70;47.70
652;DHT22;310;48.490;9.200;2023-05-07T03:48:58;16.60;48.70
652;DHT22;310;48.490;9.200;2023-05-07T03:51:23;16.80;48.00
652;DHT22;310;48.490;9.200;2023-05-07T03:53:49;16.80;47.40
652;DHT22;310;48.490;9.200;2023-05-07T03:56:15;16.80;48.20
652;DHT22;310;48.490;9.200;2023-05-07T03:58:40;16.70;48.50
652;DHT22;310;48.490;9.200;2023-05-07T04:01:06;16.60;47.80
652;DHT22;310;48.490;9.200;2023-05-07T04:03:32;16.60;48.10
652;DHT22;310;48.490;9.200;2023-05-07T04:05:58;16.60;48.50
652;DHT22;310;48.490;9.200;2023-05-07T04:08:23;16.60;47.80
652;DHT22;310;48.490;9.200;2023-05-07T04:10:54;16.60;48.20
652;DHT22;310;48.490;9.200;2023-05-07T04:13:20;16.60;48.20
652;DHT22;310;48.490;9.200;2023-05-07T04:15:46;16.60;47.30
652;DHT22;310;48.490;9.200;2023-05-07T04:18:11;16.60;48.60
652;DHT22;310;48.490;9.200;2023-05-07T04:20:37;16.60;47.90
652;DHT22;310;48.490;9.200;2023-05-07T04:23:02;16.60;47.40
652;DHT22;310;48.490;9.200;2023-05-07T04:25:28;16.60;47.90
652;DHT22;310;48.490;9.200;2023-05-07T04:27:54;16.60;48.00
652;DHT22;310;48.490;9.200;2023-05-07T04:30:20;16.60;47.90
652;DHT22;310;48.490;9.200;2023-05-07T04:32:47;16.50;48.20
652;DHT22;310;48.490;9.200;2023-05-07T04:35:13;16.50;49.70
652;DHT22;310;48.490;9.200;2023-05-07T04:37:39;16.70;48.70
652;DHT22;310;48.490;9.200;2023-05-07T04:40:06;16.70;47.60
652;DHT22;310;48.490;9.200;2023-05-07T04:42:32;16.80;48.00
652;DHT22;310;48.490;9.200;2023-05-07T04:44:57;16.80;48.80
652;DHT22;310;48.490;9.200;2023-05-07T04:47:23;16.80;47.90
652;DHT22;310;48.490;9.200;2023-05-07T04:49:48;16.80;47.80
652;DHT22;310;48.490;9.200;2023-05-07T04:52:14;16.80;46.90
652;DHT22;310;48.490;9.200;2023-05-07T04:54:40;16.80;47.30
652;DHT22;310;48.490;9.200;2023-05-07T04:57:06;16.90;47.30
652;DHT22;310;48.490;9.200;2023-05-07T04:59:32;16.90;47.00
652;DHT22;310;48.490;9.200;2023-05-07T05:01:58;16.80;47.20
652;DHT22;310;48.490;9.200;2023-05-07T05:04:23;16.70;46.80
652;DHT22;310;48.490;9.200;2023-05-07T05:06:49;16.50;48.70
652;DHT22;310;48.490;9.200;2023-05-07T05:09:15;16.20;49.20
652;DHT22;310;48.490;9.200;2023-05-07T05:11:41;16.10;50.10
652;DHT22;310;48.490;9.200;2023-05-07T05:14:07;16.20;51.80
652;DHT22;310;48.490;9.200;2023-05-07T05:16:32;16.70;49.50
652;DHT22;310;48.490;9.200;2023-05-07T05:18:58;16.80;48.80
652;DHT22;310;48.490;9.200;2023-05-07T05:21:24;17.00;47.40
652;DHT22;310;48.490;9.200;2023-05-07T05:23:50;17.10;47.80
652;DHT22;310;48.490;9.200;2023-05-07T05:26:15;17.50;47.10
652;DHT22;310;48.490;9.200;2023-05-07T05:28:41;17.60;44.50
652;DHT22;310;48.490;9.200;2023-05-07T05:31:07;17.30;45.00
652;DHT22;310;48.490;9.200;2023-05-07T05:33:32;17.30;46.80
652;DHT22;310;48.490;9.200;2023-05-07T05:35:58;17.70;46.00
652;DHT22;310;48.490;9.200;2023-05-07T05:38:23;17.60;44.10
652;DHT22;310;48.490;9.200;2023-05-07T05:40:49;17.90;43.50
652;DHT22;310;48.490;9.200;2023-05-07T05:43:14;17.40;44.20
652;DHT22;310;48.490;9.200;2023-05-07T05:45:40;17.70;45.40
652;DHT22;310;48.490;9.200;2023-05-07T05:48:06;17.80;43.40
652;DHT22;310;48.490;9.200;2023-05-07T05:50:31;17.80;43.40
652;DHT22;310;48.490;9.200;2023-05-07T05:52:57;18.10;44.80
652;DHT22;310;48.490;9.200;2023-05-07T05:55:23;18.40;40.20
652;DHT22;310;48.490;9.200;2023-05-07T05:57:49;17.90;43.70
652;DHT22;310;48.490;9.200;2023-05-07T06:00:16;18.30;44.50
652;DHT22;310;48.490;9.200;2023-05-07T06:02:42;18.20;42.40
652;DHT22;310;48.490;9.200;2023-05-07T06:05:08;18.30;42.20
652;DHT22;310;48.490;9.200;2023-05-07T06:07:34;18.40;41.30
652;DHT22;310;48.490;9.200;2023-05-07T06:10:03;18.20;42.60
652;DHT22;310;48.490;9.200;2023-05-07T06:12:28;18.70;42.50
652;DHT22;310;48.490;9.200;2023-05-07T06:14:54;18.70;41.00
652;DHT22;310;48.490;9.200;2023-05-07T06:17:20;18.80;42.00
652;DHT22;310;48.490;9.200;2023-05-07T06:19:45;18.90;41.60
652;DHT22;310;48.490;9.200;2023-05-07T06:22:11;19.20;41.70
652;DHT22;310;48.490;9.200;2023-05-07T06:24:37;18.80;40.60
652;DHT22;310;48.490;9.200;2023-05-07T06:27:02;19.00;40.80
652;DHT22;310;48.490;9.200;2023-05-07T06:29:29;18.80;40.90
652;DHT22;310;48.490;9.200;2023-05-07T06:31:56;19.10;42.30
652;DHT22;310;48.490;9.200;2023-05-07T06:34:31;19.10;40.80
652;DHT22;310;48.490;9.200;2023-05-07T06:36:56;19.40;39.60
652;DHT22;310;48.490;9.200;2023-05-07T06:39:22;19.50;40.50
652;DHT22;310;48.490;9.200;2023-05-07T06:41:47;19.50;39.70
652;DHT22;310;48.490;9.200;2023-05-07T06:44:13;19.30;39.50
652;DHT22;310;48.490;9.200;2023-05-07T06:46:38;19.20;39.60
652;DHT22;310;48.490;9.200;2023-05-07T06:49:04;18.60;40.40
652;DHT22;310;48.490;9.200;2023-05-07T06:51:30;18.60;40.80
652;DHT22;310;48.490;9.200;2023-05-07T06:53:55;18.50;41.30
652;DHT22;310;48.490;9.200;2023-05-07T06:56:21;18.70;41.40
652;DHT22;310;48.490;9.200;2023-05-07T06:58:48;18.50;42.10
652;DHT22;310;48.490;9.200;2023-05-07T07:01:13;19.00;40.70
652;DHT22;310;48.490;9.200;2023-05-07T07:03:39;18.90;42.00
652;DHT22;310;48.490;9.200;2023-05-07T07:06:05;19.00;40.50
652;DHT22;310;48.490;9.200;2023-05-07T07:08:30;18.90;40.70
652;DHT22;310;48.490;9.200;2023-05-07T07:10:56;19.10;40.80
652;DHT22;310;48.490;9.200;2023-05-07T07:13:21;19.00;40.20
652;DHT22;310;48.490;9.200;2023-05-07T07:15:47;19.00;40.20
652;DHT22;310;48.490;9.200;2023-05-07T07:18:13;19.10;39.50
652;DHT22;310;48.490;9.200;2023-05-07T07:20:38;19.70;39.70
652;DHT22;310;48.490;9.200;2023-05-07T07:23:04;19.90;38.20
652;DHT22;310;48.490;9.200;2023-05-07T07:25:29;20.00;38.90
652;DHT22;310;48.490;9.200;2023-05-07T07:27:55;20.60;38.10
652;DHT22;310;48.490;9.200;2023-05-07T07:30:21;21.10;36.60
652;DHT22;310;48.490;9.200;2023-05-07T07:32:46;20.70;36.30
652;DHT22;310;48.490;9.200;2023-05-07T07:35:12;20.40;38.70
652;DHT22;310;48.490;9.200;2023-05-07T07:37:37;20.20;37.40
652;DHT22;310;48.490;9.200;2023-05-07T07:40:03;19.90;38.60
652;DHT22;310;48.490;9.200;2023-05-07T07:42:29;19.80;39.00
652;DHT22;310;48.490;9.200;2023-05-07T07:44:55;20.30;37.90
652;DHT22;310;48.490;9.200;2023-05-07T07:47:20;20.70;37.90
652;DHT22;310;48.490;9.200;2023-05-07T07:49:46;20.90;36.60
652;DHT22;310;48.490;9.200;2023-05-07T07:52:12;20.70;36.50
652;DHT22;310;48.490;9.200;2023-05-07T07:54:37;20.90;36.50
652;DHT22;310;48.490;9.200;2023-05-07T07:57:03;21.10;35.70
652;DHT22;310;48.490;9.200;2023-05-07T07:59:29;20.90;36.50
652;DHT22;310;48.490;9.200;2023-05-07T08:01:54;20.90;36.10
652;DHT22;310;48.490;9.200;2023-05-07T08:04:22;20.90;38.00
652;DHT22;310;48.490;9.200;2023-05-07T08:06:47;21.20;36.00
652;DHT22;310;48.490;9.200;2023-05-07T08:09:13;21.90;35.10
652;DHT22;310;48.490;9.200;2023-05-07T08:11:39;21.80;33.80
652;DHT22;310;48.490;9.200;2023-05-07T08:14:05;22.10;33.30
652;DHT22;310;48.490;9.200;2023-05-07T08:16:30;21.20;35.00
652;DHT22;310;48.490;9.200;2023-05-07T08:18:56;21.30;35.30
652;DHT22;310;48.490;9.200;2023-05-07T08:21:22;21.20;35.40
652;DHT22;310;48.490;9.200;2023-05-07T08:23:48;20.90;36.90
652;DHT22;310;48.490;9.200;2023-05-07T08:26:14;21.00;36.30
652;DHT22;310;48.490;9.200;2023-05-07T08:28:40;20.80;37.40
652;DHT22;310;48.490;9.200;2023-05-07T08:31:05;20.90;36.90
652;DHT22;310;48.490;9.200;2023-05-07T08:33:31;21.50;36.00
652;DHT22;310;48.490;9.200;2023-05-07T08:35:57;22.00;34.20
652;DHT22;310;48.490;9.200;2023-05-07T08:38:22;21.80;35.20
652;DHT22;310;48.490;9.200;2023-05-07T08:40:48;21.80;34.60
652;DHT22;310;48.490;9.200;2023-05-07T08:43:14;22.00;33.80
652;DHT22;310;48.490;9.200;2023-05-07T08:45:40;22.30;33.40
652;DHT22;310;48.490;9.200;2023-05-07T08:48:15;21.50;34.60
652;DHT22;310;48.490;9.200;2023-05-07T08:50:41;21.20;35.40
652;DHT22;310;48.490;9.200;2023-05-07T08:53:06;21.60;35.70
652;DHT22;310;48.490;9.200;2023-05-07T08:55:32;21.60;34.80
652;DHT22;310;48.490;9.200;2023-05-07T08:57:59;21.40;35.40
652;DHT22;310;48.490;9.200;2023-05-07T09:00:24;21.30;36.20
652;DHT22;310;48.490;9.200;2023-05-07T09:02:51;21.50;35.20
652;DHT22;310;48.490;9.200;2023-05-07T09:05:17;21.00;36.30
652;DHT22;310;48.490;9.200;2023-05-07T09:07:42;21.30;36.10
652;DHT22;310;48.490;9.200;2023-05-07T09:10:08;21.40;36.70
652;DHT22;310;48.490;9.200;2023-05-07T09:12:34;21.80;35.60
652;DHT22;310;48.490;9.200;2023-05-07T09:15:04;22.20;34.70
652;DHT22;310;48.490;9.200;2023-05-07T09:17:31;23.00;33.60
652;DHT22;310;48.490;9.200;2023-05-07T09:19:56;23.70;32.30
652;DHT22;310;48.490;9.200;2023-05-07T09:22:26;23.40;32.30
652;DHT22;310;48.490;9.200;2023-05-07T09:24:52;23.00;32.90
652;DHT22;310;48.490;9.200;2023-05-07T09:27:18;23.30;32.10
652;DHT22;310;48.490;9.200;2023-05-07T09:29:44;23.90;30.80
652;DHT22;310;48.490;9.200;2023-05-07T09:32:10;23.60;32.30
652;DHT22;310;48.490;9.200;2023-05-07T09:34:36;23.80;31.20
652;DHT22;310;48.490;9.200;2023-05-07T09:37:02;23.90;33.00
652;DHT22;310;48.490;9.200;2023-05-07T09:39:45;24.40;31.20
652;DHT22;310;48.490;9.200;2023-05-07T09:42:11;24.60;30.10
652;DHT22;310;48.490;9.200;2023-05-07T09:44:38;24.40;30.90
652;DHT22;310;48.490;9.200;2023-05-07T09:47:07;24.40;30.40
652;DHT22;310;48.490;9.200;2023-05-07T09:49:39;24.20;31.00
652;DHT22;310;48.490;9.200;2023-05-07T09:52:07;23.90;31.40
652;DHT22;310;48.490;9.200;2023-05-07T09:54:36;24.40;32.20
652;DHT22;310;48.490;9.200;2023-05-07T09:57:04;24.60;29.30
652;DHT22;310;48.490;9.200;2023-05-07T09:59:31;24.10;30.80
652;DHT22;310;48.490;9.200;2023-05-07T10:01:58;24.90;30.00
652;DHT22;310;48.490;9.200;2023-05-07T10:04:27;25.50;29.80
652;DHT22;310;48.490;9.200;2023-05-07T10:06:54;25.80;28.10
652;DHT22;310;48.490;9.200;2023-05-07T10:09:21;26.20;28.80
652;DHT22;310;48.490;9.200;2023-05-07T10:11:49;26.50;26.20
652;DHT22;310;48.490;9.200;2023-05-07T10:14:14;25.70;29.00
652;DHT22;310;48.490;9.200;2023-05-07T10:16:41;26.10;27.00
652;DHT22;310;48.490;9.200;2023-05-07T10:19:08;26.80;28.20
652;DHT22;310;48.490;9.200;2023-05-07T10:21:39;26.90;26.80
652;DHT22;310;48.490;9.200;2023-05-07T10:24:10;26.90;25.90
652;DHT22;310;48.490;9.200;2023-05-07T10:26:44;27.40;26.10
652;DHT22;310;48.490;9.200;2023-05-07T10:34:48;28.80;22.00
652;DHT22;310;48.490;9.200;2023-05-07T10:37:17;28.50;22.10
652;DHT22;310;48.490;9.200;2023-05-07T10:39:43;28.10;22.80
652;DHT22;310;48.490;9.200;2023-05-07T10:42:10;27.70;25.90
652;DHT22;310;48.490;9.200;2023-05-07T10:44:36;28.40;23.20
652;DHT22;310;48.490;9.200;2023-05-07T10:47:10;28.40;22.90
652;DHT22;310;48.490;9.200;2023-05-07T10:49:40;28.80;23.40
652;DHT22;310;48.490;9.200;2023-05-07T10:52:23;28.90;21.90
652;DHT22;310;48.490;9.200;2023-05-07T10:57:44;28.60;21.50
652;DHT22;310;48.490;9.200;2023-05-07T11:05:30;27.20;24.10
652;DHT22;310;48.490;9.200;2023-05-07T11:07:56;27.20;24.00
652;DHT22;310;48.490;9.200;2023-05-07T11:10:22;27.30;23.50
652;DHT22;310;48.490;9.200;2023-05-07T11:12:50;27.10;23.20
652;DHT22;310;48.490;9.200;2023-05-07T11:15:34;27.10;21.70
652;DHT22;310;48.490;9.200;2023-05-07T11:18:01;27.10;23.30
652;DHT22;310;48.490;9.200;2023-05-07T11:26:07;26.60;33.00
652;DHT22;310;48.490;9.200;2023-05-07T11:28:38;26.20;35.40
652;DHT22;310;48.490;9.200;2023-05-07T11:31:04;24.90;38.30
652;DHT22;310;48.490;9.200;2023-05-07T11:33:30;24.20;43.20
652;DHT22;310;48.490;9.200;2023-05-07T11:35:57;24.20;42.30
652;DHT22;310;48.490;9.200;2023-05-07T11:38:23;24.20;41.50
652;DHT22;310;48.490;9.200;2023-05-07T11:40:52;24.00;41.90
652;DHT22;310;48.490;9.200;2023-05-07T11:43:18;24.10;43.90
652;DHT22;310;48.490;9.200;2023-05-07T11:45:45;24.40;41.60
652;DHT22;310;48.490;9.200;2023-05-07T11:48:12;24.70;41.40
652;DHT22;310;48.490;9.200;2023-05-07T11:53:25;25.50;41.40
652;DHT22;310;48.490;9.200;2023-05-07T11:55:57;25.70;42.50
652;DHT22;310;48.490;9.200;2023-05-07T11:58:24;25.60;43.90
652;DHT22;310;48.490;9.200;2023-05-07T12:00:53;25.70;42.80
652;DHT22;310;48.490;9.200;2023-05-07T12:03:20;25.60;41.30
652;DHT22;310;48.490;9.200;2023-05-07T12:05:48;25.50;42.40
652;DHT22;310;48.490;9.200;2023-05-07T12:08:18;25.60;40.00
652;DHT22;310;48.490;9.200;2023-05-07T12:10:45;25.50;41.60
652;DHT22;310;48.490;9.200;2023-05-07T12:13:20;25.00;40.60
652;DHT22;310;48.490;9.200;2023-05-07T12:15:46;25.00;41.20
652;DHT22;310;48.490;9.200;2023-05-07T12:18:12;24.90;42.70
652;DHT22;310;48.490;9.200;2023-05-07T12:20:39;24.80;42.30
652;DHT22;310;48.490;9.200;2023-05-07T12:23:05;24.80;41.40
652;DHT22;310;48.490;9.200;2023-05-07T12:25:35;24.70;42.20
652;DHT22;310;48.490;9.200;2023-05-07T12:28:02;24.60;44.00
652;DHT22;310;48.490;9.200;2023-05-07T12:30:31;24.40;45.00
652;DHT22;310;48.490;9.200;2023-05-07T12:32:56;24.40;45.10
652;DHT22;310;48.490;9.200;2023-05-07T12:35:29;24.10;46.60
652;DHT22;310;48.490;9.200;2023-05-07T12:37:58;23.90;46.50
652;DHT22;310;48.490;9.200;2023-05-07T12:43:06;23.80;47.50
652;DHT22;310;48.490;9.200;2023-05-07T12:45:37;23.70;48.20
652;DHT22;310;48.490;9.200;2023-05-07T12:48:03;23.70;47.30
652;DHT22;310;48.490;9.200;2023-05-07T12:50:32;23.60;48.00
652;DHT22;310;48.490;9.200;2023-05-07T12:52:58;23.60;49.70
652;DHT22;310;48.490;9.200;2023-05-07T12:55:24;23.60;49.80
652;DHT22;310;48.490;9.200;2023-05-07T12:57:51;23.70;47.50
652;DHT22;310;48.490;9.200;2023-05-07T13:00:31;23.70;45.10
652;DHT22;310;48.490;9.200;2023-05-07T13:02:58;23.70;45.10
652;DHT22;310;48.490;9.200;2023-05-07T13:05:24;23.70;42.70
652;DHT22;310;48.490;9.200;2023-05-07T13:07:53;23.00;41.50
652;DHT22;310;48.490;9.200;2023-05-07T13:10:19;21.70;47.10
652;DHT22;310;48.490;9.200;2023-05-07T13:12:45;20.90;46.00
652;DHT22;310;48.490;9.200;2023-05-07T13:15:10;20.30;50.20
652;DHT22;310;48.490;9.200;2023-05-07T13:17:36;19.80;49.70
652;DHT22;310;48.490;9.200;2023-05-07T13:20:01;19.00;49.20
652;DHT22;310;48.490;9.200;2023-05-07T13:22:27;18.80;55.00
652;DHT22;310;48.490;9.200;2023-05-07T13:24:52;18.70;60.60
652;DHT22;310;48.490;9.200;2023-05-07T13:27:18;18.70;63.30
652;DHT22;310;48.490;9.200;2023-05-07T13:29:44;18.70;65.50
652;DHT22;310;48.490;9.200;2023-05-07T13:32:10;18.60;71.40
652;DHT22;310;48.490;9.200;2023-05-07T13:34:36;18.10;77.90
652;DHT22;310;48.490;9.200;2023-05-07T13:37:02;18.00;84.30
652;DHT22;310;48.490;9.200;2023-05-07T13:39:28;17.90;82.50
652;DHT22;310;48.490;9.200;2023-05-07T13:41:53;17.60;85.50
652;DHT22;310;48.490;9.200;2023-05-07T13:44:19;17.60;88.70
652;DHT22;310;48.490;9.200;2023-05-07T13:46:44;18.00;84.50
652;DHT22;310;48.490;9.200;2023-05-07T13:49:10;18.20;81.80
652;DHT22;310;48.490;9.200;2023-05-07T13:51:36;18.20;81.20
652;DHT22;310;48.490;9.200;2023-05-07T13:54:02;18.10;81.50
652;DHT22;310;48.490;9.200;2023-05-07T13:56:28;17.60;82.80
652;DHT22;310;48.490;9.200;2023-05-07T13:58:56;17.40;85.70
652;DHT22;310;48.490;9.200;2023-05-07T14:01:21;17.20;88.00
652;DHT22;310;48.490;9.200;2023-05-07T14:03:47;17.40;89.70
652;DHT22;310;48.490;9.200;2023-05-07T14:06:12;18.20;82.80
652;DHT22;310;48.490;9.200;2023-05-07T14:08:38;18.70;76.10
652;DHT22;310;48.490;9.200;2023-05-07T14:11:04;19.00;70.30
652;DHT22;310;48.490;9.200;2023-05-07T14:13:29;19.30;69.80
652;DHT22;310;48.490;9.200;2023-05-07T14:15:56;19.40;70.00
652;DHT22;310;48.490;9.200;2023-05-07T14:18:22;19.50;67.90
652;DHT22;310;48.490;9.200;2023-05-07T14:20:47;19.60;67.00
652;DHT22;310;48.490;9.200;2023-05-07T14:23:14;19.70;67.30
652;DHT22;310;48.490;9.200;2023-05-07T14:25:40;19.70;66.40
652;DHT22;310;48.490;9.200;2023-05-07T14:28:06;19.70;65.70
652;DHT22;310;48.490;9.200;2023-05-07T14:30:32;19.60;67.30
652;DHT22;310;48.490;9.200;2023-05-07T14:32:57;19.70;67.80
652;DHT22;310;48.490;9.200;2023-05-07T14:35:23;19.80;66.10
652;DHT22;310;48.490;9.200;2023-05-07T14:37:49;20.10;63.70
652;DHT22;310;48.490;9.200;2023-05-07T14:40:14;20.20;61.10
652;DHT22;310;48.490;9.200;2023-05-07T14:42:40;20.20;60.30
652;DHT22;310;48.490;9.200;2023-05-07T14:45:06;19.90;62.60
652;DHT22;310;48.490;9.200;2023-05-07T14:47:32;18.90;66.40
652;DHT22;310;48.490;9.200;2023-05-07T14:49:57;19.90;66.90
652;DHT22;310;48.490;9.200;2023-05-07T14:52:23;19.90;64.80
652;DHT22;310;48.490;9.200;2023-05-07T14:54:49;19.90;66.90
652;DHT22;310;48.490;9.200;2023-05-07T14:57:15;19.80;67.80
652;DHT22;310;48.490;9.200;2023-05-07T14:59:44;19.90;68.10
652;DHT22;310;48.490;9.200;2023-05-07T15:02:11;20.10;66.00
652;DHT22;310;48.490;9.200;2023-05-07T15:04:37;20.40;65.70
652;DHT22;310;48.490;9.200;2023-05-07T15:07:11;20.40;65.00
652;DHT22;310;48.490;9.200;2023-05-07T15:09:40;20.50;61.50
652;DHT22;310;48.490;9.200;2023-05-07T15:12:06;20.90;62.10
652;DHT22;310;48.490;9.200;2023-05-07T15:14:31;21.00;59.10
652;DHT22;310;48.490;9.200;2023-05-07T15:16:57;21.20;59.00
652;DHT22;310;48.490;9.200;2023-05-07T15:19:23;21.40;57.10
652;DHT22;310;48.490;9.200;2023-05-07T15:21:50;21.60;53.40
652;DHT22;310;48.490;9.200;2023-05-07T15:24:16;21.50;54.30
652;DHT22;310;48.490;9.200;2023-05-07T15:26:41;21.60;54.70
652;DHT22;310;48.490;9.200;2023-05-07T15:29:07;21.50;53.30
652;DHT22;310;48.490;9.200;2023-05-07T15:31:35;21.60;55.20
652;DHT22;310;48.490;9.200;2023-05-07T15:34:02;21.90;54.20
652;DHT22;310;48.490;9.200;2023-05-07T15:36:28;22.00;54.90
652;DHT22;310;48.490;9.200;2023-05-07T15:38:54;22.10;55.10
652;DHT22;310;48.490;9.200;2023-05-07T15:41:20;22.20;54.60
652;DHT22;310;48.490;9.200;2023-05-07T15:43:50;22.20;53.90
652;DHT22;310;48.490;9.200;2023-05-07T15:46:20;22.50;50.30
652;DHT22;310;48.490;9.200;2023-05-07T15:48:46;22.40;48.80
652;DHT22;310;48.490;9.200;2023-05-07T15:51:12;22.60;46.20
652;DHT22;310;48.490;9.200;2023-05-07T15:53:38;22.50;46.70
652;DHT22;310;48.490;9.200;2023-05-07T15:56:04;22.40;49.80
652;DHT22;310;48.490;9.200;2023-05-07T15:58:30;22.50;48.00
652;DHT22;310;48.490;9.200;2023-05-07T16:00:55;22.20;48.30
652;DHT22;310;48.490;9.200;2023-05-07T16:03:22;22.10;49.10
652;DHT22;310;48.490;9.200;2023-05-07T16:05:47;20.90;51.50
652;DHT22;310;48.490;9.200;2023-05-07T16:08:13;20.40;57.10
652;DHT22;310;48.490;9.200;2023-05-07T16:10:39;20.40;55.30
652;DHT22;310;48.490;9.200;2023-05-07T16:13:05;20.50;56.00
652;DHT22;310;48.490;9.200;2023-05-07T16:15:31;20.40;54.40
652;DHT22;310;48.490;9.200;2023-05-07T16:17:56;20.00;57.00
652;DHT22;310;48.490;9.200;2023-05-07T16:20:27;19.90;59.50
652;DHT22;310;48.490;9.200;2023-05-07T16:22:57;20.20;58.60
652;DHT22;310;48.490;9.200;2023-05-07T16:25:22;19.70;61.00
652;DHT22;310;48.490;9.200;2023-05-07T16:27:48;19.60;62.80
652;DHT22;310;48.490;9.200;2023-05-07T16:30:14;19.60;62.70
652;DHT22;310;48.490;9.200;2023-05-07T16:32:40;19.30;64.20
652;DHT22;310;48.490;9.200;2023-05-07T16:35:06;19.20;64.90
652;DHT22;310;48.490;9.200;2023-05-07T16:37:32;19.20;66.00
652;DHT22;310;48.490;9.200;2023-05-07T16:40:00;19.10;65.90
652;DHT22;310;48.490;9.200;2023-05-07T16:42:27;19.30;65.00
652;DHT22;310;48.490;9.200;2023-05-07T16:44:53;19.50;63.20
652;DHT22;310;48.490;9.200;2023-05-07T16:47:19;20.00;61.20
652;DHT22;310;48.490;9.200;2023-05-07T16:49:45;19.80;61.30
652;DHT22;310;48.490;9.200;2023-05-07T16:52:11;20.20;60.70
652;DHT22;310;48.490;9.200;2023-05-07T16:54:36;19.90;60.80